Time;durP1;ratioP1;P1;durP2;ratioP2;P2;SDS_P1;SDS_P2;PMS_P1;PMS_P2;Temp;Humidity;BMP_temperature;BMP_pressure;BME280_temperature;BME280_humidity;BME280_pressure;Samples;Min_cycle;Max_cycle;Signal;HPM_P1;HPM_P2
2020/12/02 00:01:23;;;;;;;27.13;17.97;;;;;;;2.72;95.06;98922.84;5032633;28;20367;-84
2020/12/02 00:04:37;;;;;;;18.90;13.80;;;;;;;4.10;90.54;98923.34;5060317;28;20036;-84
2020/12/02 00:07:55;;;;;;;21.23;14.37;;;;;;;3.77;85.68;98913.94;5071680;28;20058;-83
2020/12/02 00:11:13;;;;;;;25.87;17.43;;;;;;;3.35;89.86;98917.59;5042408;28;20083;-81
2020/12/02 00:14:30;;;;;;;26.47;16.73;;;;;;;2.89;89.82;98911.78;5042756;28;20056;-83
2020/12/02 00:17:44;;;;;;;30.03;19.17;;;;;;;2.54;91.85;98913.84;5072618;28;20055;-81
2020/12/02 00:20:59;;;;;;;27.73;18.77;;;;;;;2.59;92.71;98914.31;5039148;28;20039;-80
2020/12/02 00:24:13;;;;;;;27.50;17.93;;;;;;;2.65;93.35;98913.78;5081621;28;20048;-79
2020/12/02 00:27:31;;;;;;;27.30;17.43;;;;;;;2.53;93.34;98913.00;5048456;28;20036;-80
2020/12/02 00:30:45;;;;;;;30.13;19.17;;;;;;;2.55;93.14;98912.88;5049044;28;20043;-80
2020/12/02 00:33:58;;;;;;;26.77;18.23;;;;;;;2.44;93.01;98918.19;5059088;28;20039;-81
2020/12/02 00:37:16;;;;;;;24.73;16.07;;;;;;;2.47;93.33;98916.16;5031238;28;20043;-81
2020/12/02 00:40:29;;;;;;;26.47;17.60;;;;;;;2.46;93.69;98917.09;5060074;28;20047;-82
2020/12/02 00:43:43;;;;;;;23.33;15.83;;;;;;;2.42;93.54;98925.38;5060017;28;20043;-81
2020/12/02 00:46:56;;;;;;;26.07;17.63;;;;;;;2.44;93.73;98915.56;5070094;28;20101;-82
2020/12/02 00:50:12;;;;;;;28.03;18.77;;;;;;;2.44;93.98;98918.19;5060234;28;20040;-82
2020/12/02 00:53:28;;;;;;;26.40;16.87;;;;;;;2.39;93.88;98915.06;5050938;28;20068;-82
2020/12/02 00:56:47;;;;;;;25.60;17.00;;;;;;;2.37;94.21;98911.72;5045876;28;20045;-81
2020/12/02 01:00:03;;;;;;;30.37;18.87;;;;;;;2.42;94.01;98917.47;5061217;28;20445;-81
2020/12/02 01:03:25;;;;;;;21.40;14.60;;;;;;;3.38;94.76;98910.28;5072459;28;20048;-81
2020/12/02 01:06:37;;;;;;;27.50;16.67;;;;;;;3.64;87.70;98918.59;5072492;28;20063;-82
2020/12/02 01:09:48;;;;;;;;;;;;;;;2.57;89.81;98910.97;5039974;28;20043;-81
2020/12/02 01:13:01;;;;;;;28.60;18.20;;;;;;;2.53;92.00;98910.38;5050355;28;19920;-82
2020/12/02 01:16:20;;;;;;;28.40;17.97;;;;;;;2.60;93.00;98908.06;5050804;28;20298;-82
2020/12/02 01:19:38;;;;;;;28.23;18.63;;;;;;;2.53;93.17;98902.47;5072439;28;20032;-84
2020/12/02 01:22:50;;;;;;;26.83;17.90;;;;;;;2.61;94.16;98912.38;5061790;28;20045;-84
2020/12/02 01:26:04;;;;;;;33.77;19.63;;;;;;;2.30;94.56;98915.81;5039245;28;20048;-84
2020/12/02 01:29:22;;;;;;;23.13;15.87;;;;;;;2.00;95.86;98912.09;5061264;28;20052;-83
2020/12/02 01:32:34;;;;;;;21.67;14.57;;;;;;;1.93;96.87;98910.88;5060720;28;20415;-82
2020/12/02 01:35:53;;;;;;;23.90;17.03;;;;;;;1.78;97.62;98923.44;5039284;28;20086;-81
2020/12/02 01:39:09;;;;;;;28.30;18.57;;;;;;;1.89;98.26;98913.88;5055251;28;20055;-81
2020/12/02 01:42:26;;;;;;;24.17;16.70;;;;;;;1.87;98.41;98921.91;5038445;28;20063;-81
2020/12/02 01:50:31;;;;;;;23.73;16.27;;;;;;;2.05;96.65;98917.78;5072005;28;20048;-84
2020/12/02 01:53:53;;;;;;;28.63;17.07;;;;;;;1.82;97.93;98918.78;5049908;28;20055;-84
2020/12/02 01:57:26;;;;;;;24.77;16.27;;;;;;;1.73;98.22;98904.56;5031348;28;20483;-82
2020/12/02 02:00:44;;;;;;;22.73;15.43;;;;;;;1.65;99.15;98903.50;5064696;28;20507;-84
2020/12/02 02:04:04;;;;;;;31.50;18.73;;;;;;;1.60;99.49;98908.28;5060419;28;20036;-83
2020/12/02 02:07:25;;;;;;;25.67;16.17;;;;;;;1.57;99.48;98895.38;5060412;28;20055;-84
2020/12/02 02:10:47;;;;;;;21.13;14.07;;;;;;;1.83;100.00;98894.16;5047728;28;20052;-84
2020/12/02 02:14:30;;;;;;;25.53;17.20;;;;;;;1.80;99.62;98899.66;5039209;28;20395;-84
2020/12/02 02:17:48;;;;;;;26.93;17.63;;;;;;;1.76;99.02;98893.00;5060142;28;20048;-84
2020/12/02 02:21:18;;;;;;;22.33;15.63;;;;;;;1.75;99.14;98892.16;5051669;28;20055;-84
2020/12/02 02:24:36;;;;;;;20.63;14.60;;;;;;;1.70;98.81;98886.41;5049311;28;20052;-83
2020/12/02 02:27:50;;;;;;;22.00;14.93;;;;;;;1.90;98.61;98884.81;5038733;28;20055;-83
2020/12/02 02:31:02;;;;;;;26.10;16.43;;;;;;;1.93;98.28;98889.84;5060411;28;20055;-83
2020/12/02 02:34:16;;;;;;;22.87;16.10;;;;;;;1.89;98.12;98887.59;5036380;28;20076;-82
2020/12/02 02:37:31;;;;;;;18.80;13.67;;;;;;;2.10;98.44;98884.09;5059709;28;20388;-83
2020/12/02 02:40:43;;;;;;;20.33;14.63;;;;;;;2.15;98.38;98892.44;5037636;28;20044;-83
2020/12/02 02:43:56;;;;;;;21.55;14.63;;;;;;;2.06;97.77;98890.53;5037382;28;20052;-83
2020/12/02 02:47:07;;;;;;;23.37;14.63;;;;;;;2.08;97.91;98891.25;5058185;28;20048;-83
2020/12/02 02:50:21;;;;;;;26.35;16.48;;;;;;;2.01;97.87;98889.22;5060315;28;20040;-83
2020/12/02 02:53:33;;;;;;;24.23;15.67;;;;;;;2.22;98.02;98886.69;5057905;28;20045;-82
2020/12/02 02:56:45;;;;;;;22.13;15.10;;;;;;;2.15;97.71;98888.97;5059144;28;20041;-81
2020/12/02 02:59:57;;;;;;;22.65;15.48;;;;;;;1.92;97.39;98882.91;5027085;28;20476;-81
2020/12/02 03:03:13;;;;;;;24.07;15.70;;;;;;;1.81;97.61;98875.06;5037395;28;20040;-81
2020/12/02 03:06:24;;;;;;;37.33;22.30;;;;;;;1.84;98.24;98877.44;5058822;28;20041;-81
2020/12/02 03:09:35;;;;;;;32.15;19.38;;;;;;;1.90;98.21;98874.31;5046247;28;20048;-82
2020/12/02 03:12:47;;;;;;;22.25;15.10;;;;;;;1.74;98.57;98876.50;5048244;28;20392;-82
2020/12/02 03:16:03;;;;;;;24.50;16.03;;;;;;;1.81;98.22;98867.16;5041261;28;20495;-82
2020/12/02 03:19:25;;;;;;;29.77;18.17;;;;;;;1.93;98.27;98878.50;5048879;28;20032;-82
2020/12/02 03:22:37;;;;;;;24.77;15.40;;;;;;;1.90;98.14;98870.84;5058935;28;20495;-82
2020/12/02 03:25:48;;;;;;;21.88;14.68;;;;;;;2.17;99.02;98871.28;5061576;28;20368;-82
2020/12/02 03:28:59;;;;;;;23.03;15.90;;;;;;;2.24;98.67;98872.47;5074638;28;20037;-82
2020/12/02 03:32:10;;;;;;;17.73;12.07;;;;;;;2.07;97.45;98859.81;5062359;28;20079;-82
2020/12/02 03:35:22;;;;;;;17.80;12.10;;;;;;;1.83;97.48;98865.25;5029602;28;20052;-81
2020/12/02 03:38:32;;;;;;;19.83;12.93;;;;;;;1.87;98.42;98860.59;5039487;28;20490;-81
2020/12/02 03:41:44;;;;;;;18.20;13.07;;;;;;;2.05;97.67;98853.84;5040695;28;20052;-81
2020/12/02 03:44:55;;;;;;;18.73;12.73;;;;;;;1.97;98.15;98851.00;5062735;28;20055;-81
2020/12/02 03:48:07;;;;;;;16.63;11.65;;;;;;;1.88;97.39;98843.88;5052204;28;20045;-81
2020/12/02 03:51:19;;;;;;;17.13;10.90;;;;;;;1.78;97.96;98849.00;5041052;28;20048;-82
2020/12/02 03:54:28;;;;;;;21.03;13.77;;;;;;;1.91;98.10;98843.59;5048574;28;20032;-81
2020/12/02 03:57:39;;;;;;;14.93;10.30;;;;;;;1.75;98.01;98842.22;5043470;28;20378;-82
2020/12/02 04:00:49;;;;;;;20.20;13.13;;;;;;;1.77;98.81;98836.84;5048601;28;20048;-82
2020/12/02 04:03:59;;;;;;;18.30;12.53;;;;;;;1.82;98.47;98834.66;5082197;28;20036;-82
2020/12/02 04:07:09;;;;;;;20.87;13.23;;;;;;;1.62;98.52;98830.19;5070688;28;20370;-82
2020/12/02 04:10:20;;;;;;;16.63;11.57;;;;;;;1.72;99.43;98825.84;5082864;28;20043;-82
2020/12/02 04:13:33;;;;;;;18.40;12.27;;;;;;;1.84;98.80;98819.63;5070687;28;20048;-82
2020/12/02 04:16:43;;;;;;;24.48;14.32;;;;;;;1.84;98.87;98813.53;5048947;28;20039;-82
2020/12/02 04:19:54;;;;;;;24.13;14.80;;;;;;;2.11;98.54;98808.66;5048177;28;20048;-82
2020/12/02 04:23:06;;;;;;;28.23;14.63;;;;;;;2.00;97.73;98806.91;5071856;28;20046;-82
2020/12/02 04:26:17;;;;;;;14.80;9.38;;;;;;;2.06;97.74;98805.56;5030828;28;20052;-83
2020/12/02 04:29:30;;;;;;;15.93;11.57;;;;;;;2.20;97.71;98800.03;5031842;28;20402;-82
2020/12/02 04:32:42;;;;;;;23.50;14.80;;;;;;;2.15;97.71;98810.91;5048382;28;20036;-84
2020/12/02 04:35:56;;;;;;;16.80;11.80;;;;;;;2.33;98.26;98802.47;5070078;28;20040;-83
2020/12/02 04:39:07;;;;;;;17.40;11.63;;;;;;;2.16;97.37;98807.31;5053553;28;20463;-83
2020/12/02 04:42:19;;;;;;;19.73;12.65;;;;;;;2.18;97.31;98802.78;5042448;28;20502;-83
2020/12/02 04:45:34;;;;;;;23.80;15.53;;;;;;;2.34;97.50;98814.66;5070211;28;20044;-82
2020/12/02 04:48:56;;;;;;;17.37;11.83;;;;;;;2.27;97.07;98808.22;5080914;28;20542;-82
2020/12/02 04:52:15;;;;;;;14.23;10.00;;;;;;;2.27;96.79;98802.97;5058587;28;20063;-83
2020/12/02 04:55:26;;;;;;;14.27;10.30;;;;;;;2.27;96.35;98809.06;5047789;28;20044;-82
2020/12/02 04:58:40;;;;;;;17.30;12.30;;;;;;;2.39;96.92;98809.84;5048253;28;20049;-83
2020/12/02 05:01:56;;;;;;;15.33;11.20;;;;;;;2.28;96.75;98800.22;5080991;28;20394;-83
2020/12/02 05:05:07;;;;;;;15.20;11.10;;;;;;;2.29;96.44;98806.31;5041553;28;20138;-83
2020/12/02 05:08:28;;;;;;;16.43;11.20;;;;;;;2.27;96.42;98809.06;5030685;28;20489;-82
2020/12/02 05:11:42;;;;;;;12.85;9.07;;;;;;;2.24;96.38;98803.25;5069673;28;20032;-83
2020/12/02 05:14:53;;;;;;;14.47;10.40;;;;;;;2.23;95.99;98793.69;5041162;28;20055;-83
2020/12/02 05:18:18;;;;;;;11.80;8.65;;;;;;;2.30;96.48;98792.19;5030040;28;20552;-82
2020/12/02 05:21:40;;;;;;;14.80;10.47;;;;;;;2.28;96.22;98792.31;5048562;28;20036;-82
2020/12/02 05:24:53;;;;;;;21.23;13.23;;;;;;;2.19;96.65;98798.34;5048465;28;20040;-82
2020/12/02 05:28:24;;;;;;;17.30;11.77;;;;;;;2.12;96.46;98795.38;5041319;28;20048;-82
2020/12/02 05:31:36;;;;;;;21.30;11.23;;;;;;;2.16;96.84;98796.78;5047519;28;20040;-82
2020/12/02 05:34:48;;;;;;;15.87;10.87;;;;;;;2.22;96.75;98789.38;5069282;28;20040;-82
2020/12/02 05:37:59;;;;;;;14.35;10.57;;;;;;;2.22;96.28;98784.97;5080213;28;20491;-83
2020/12/02 05:41:14;;;;;;;11.90;9.25;;;;;;;2.91;99.35;98777.38;5080538;28;20040;-83
2020/12/02 05:44:33;;;;;;;16.13;12.07;;;;;;;2.74;97.38;98785.84;5068842;28;20466;-83
2020/12/02 05:47:47;;;;;;;18.53;11.77;;;;;;;2.50;96.06;98779.06;5069427;28;20040;-83
2020/12/02 05:50:58;;;;;;;16.73;10.90;;;;;;;2.44;96.42;98784.00;5046809;28;20517;-84
2020/12/02 05:54:28;;;;;;;13.25;9.77;;;;;;;2.32;95.89;98785.03;5041016;28;20506;-84
2020/12/02 05:58:00;;;;;;;18.33;12.23;;;;;;;2.22;95.74;98784.97;5058101;28;20051;-83
2020/12/02 06:01:14;;;;;;;16.97;11.53;;;;;;;2.19;96.67;98785.19;5080543;28;20036;-83
2020/12/02 06:04:26;;;;;;;18.97;10.97;;;;;;;2.26;97.04;98777.63;5079583;28;20036;-82
2020/12/02 06:07:51;;;;;;;17.50;12.00;;;;;;;2.22;96.49;98779.69;5029698;28;20052;-82
2020/12/02 06:11:18;;;;;;;18.03;12.10;;;;;;;2.17;96.04;98787.94;5068366;28;20040;-82
2020/12/02 06:14:35;;;;;;;19.47;12.20;;;;;;;2.21;96.55;98788.53;5036090;28;20050;-82
2020/12/02 06:17:47;;;;;;;19.43;12.70;;;;;;;2.33;96.57;98784.06;5057196;28;20040;-82
2020/12/02 06:20:58;;;;;;;15.95;11.45;;;;;;;2.16;96.40;98778.38;5057341;28;20036;-83
2020/12/02 06:24:12;;;;;;;21.92;13.63;;;;;;;2.14;96.38;98780.31;5051420;28;20040;-83
2020/12/02 06:27:41;;;;;;;18.80;11.47;;;;;;;2.06;96.34;98790.63;5040037;28;20059;-83
2020/12/02 06:31:24;;;;;;;16.97;11.10;;;;;;;2.15;96.34;98786.41;5056908;28;20040;-82
2020/12/02 06:34:35;;;;;;;18.33;11.20;;;;;;;2.21;96.42;98788.53;5067844;28;20036;-83
2020/12/02 06:38:12;;;;;;;13.27;9.87;;;;;;;2.23;96.47;98785.78;5028843;28;20055;-83
2020/12/02 06:41:35;;;;;;;19.53;11.13;;;;;;;2.64;98.12;98783.16;5059134;28;20048;-84
2020/12/02 06:45:10;;;;;;;15.73;10.30;;;;;;;2.65;96.42;98790.09;5079358;28;20513;-84
2020/12/02 06:48:37;;;;;;;29.97;10.63;;;;;;;2.13;96.22;98790.94;5068230;28;20035;-86
2020/12/02 06:52:08;;;;;;;18.03;10.70;;;;;;;2.18;95.99;98792.25;5067188;28;20063;-85
2020/12/02 06:55:28;;;;;;;19.27;10.20;;;;;;;2.06;96.74;98798.50;5079241;28;20048;-86
2020/12/02 06:58:39;;;;;;;22.10;11.10;;;;;;;1.92;97.64;98796.16;5038630;28;20075;-86
2020/12/02 07:01:52;;;;;;;14.67;9.70;;;;;;;2.17;96.97;98795.84;5046548;28;20048;-86
2020/12/02 07:05:06;;;;;;;11.65;8.25;;;;;;;2.36;95.36;98803.03;5067756;28;20510;-88
2020/12/02 07:08:34;;;;;;;16.17;9.47;;;;;;;2.23;96.34;98801.56;5051609;28;20047;-86
2020/12/02 07:12:05;;;;;;;15.80;10.40;;;;;;;2.31;97.77;98796.50;5049286;28;20055;-86
2020/12/02 07:15:18;;;;;;;19.30;11.33;;;;;;;2.30;97.17;98811.44;5050497;28;20446;-86
2020/12/02 07:18:29;;;;;;;18.17;10.93;;;;;;;2.26;96.44;98803.94;5056364;28;20424;-85
2020/12/02 07:21:59;;;;;;;18.83;11.70;;;;;;;2.37;96.17;98804.72;5078629;28;20051;-85
2020/12/02 07:25:11;;;;;;;15.73;10.10;;;;;;;2.33;96.03;98802.47;5039390;28;20054;-85
2020/12/02 07:28:24;;;;;;;18.90;11.70;;;;;;;2.45;96.03;98802.31;5028273;28;20048;-84
2020/12/02 07:31:39;;;;;;;15.63;9.53;;;;;;;2.45;95.79;98801.47;5079523;28;20044;-85
2020/12/02 07:35:00;;;;;;;16.67;10.23;;;;;;;2.59;95.07;98803.78;5067443;28;20406;-84
2020/12/02 07:38:15;;;;;;;16.90;10.27;;;;;;;2.46;94.76;98800.50;5055894;28;20032;-84
2020/12/02 07:41:27;;;;;;;19.57;12.10;;;;;;;2.48;95.80;98801.19;5060680;28;20048;-85
2020/12/02 07:50:02;;;;;;;15.40;9.87;;;;;;;2.49;94.87;98808.13;5090922;28;19920;-84
2020/12/02 07:53:41;;;;;;;19.70;11.63;;;;;;;2.46;94.95;98808.41;5058868;28;20063;-85
2020/12/02 07:57:01;;;;;;;20.63;12.27;;;;;;;2.48;94.76;98814.34;5059318;28;20067;-85
2020/12/02 08:05:53;;;;;;;18.77;11.70;;;;;;;2.50;94.53;98807.16;5072887;28;20522;-84
2020/12/02 08:14:50;;;;;;;18.83;11.60;;;;;;;2.79;94.55;98810.00;5074703;28;20075;-84
2020/12/02 08:18:23;;;;;;;23.50;13.90;;;;;;;3.09;93.71;98815.28;5073797;28;20040;-83
2020/12/02 08:21:38;;;;;;;25.87;15.13;;;;;;;3.20;92.99;98809.09;5051545;28;20037;-83
2020/12/02 08:25:04;;;;;;;22.10;13.27;;;;;;;3.40;91.99;98808.22;5051257;28;20047;-83
2020/12/02 08:28:27;;;;;;;26.60;15.33;;;;;;;3.26;91.14;98819.94;5062406;28;20360;-84
2020/12/02 08:31:44;;;;;;;22.97;13.30;;;;;;;3.50;91.01;98817.00;5022115;28;20068;-84
2020/12/02 08:34:55;;;;;;;22.67;14.00;;;;;;;3.54;90.05;98821.00;5051173;28;20036;-85
2020/12/02 08:38:13;;;;;;;20.95;12.60;;;;;;;3.43;89.74;98820.28;5051721;28;20051;-85
2020/12/02 08:41:26;;;;;;;21.67;13.63;;;;;;;3.84;90.93;98829.84;5050686;28;20041;-86
2020/12/02 08:44:37;;;;;;;18.87;12.37;;;;;;;5.03;85.46;98833.88;5062421;28;20047;-84
2020/12/02 08:48:01;;;;;;;22.50;13.83;;;;;;;3.97;83.77;98830.44;5045655;28;20044;-86
2020/12/02 08:51:16;;;;;;;22.47;14.57;;;;;;;3.80;87.16;98826.63;5040104;28;20039;-85
2020/12/02 08:54:27;;;;;;;23.70;15.33;;;;;;;3.40;89.09;98820.56;5058408;28;20044;-85
2020/12/02 08:57:39;;;;;;;21.97;14.20;;;;;;;3.59;88.34;98821.44;5069881;28;20043;-85
2020/12/02 09:00:49;;;;;;;29.37;16.70;;;;;;;3.49;88.88;98825.88;5042098;28;20047;-85
2020/12/02 09:03:59;;;;;;;22.40;13.83;;;;;;;3.31;90.02;98830.06;5063994;28;20099;-85
2020/12/02 09:07:11;;;;;;;22.17;15.00;;;;;;;3.84;88.25;98830.69;5030866;28;20286;-84
2020/12/02 09:10:22;;;;;;;25.70;15.35;;;;;;;3.58;88.13;98821.59;5051325;28;20585;-85
2020/12/02 09:13:32;;;;;;;29.93;18.53;;;;;;;3.46;89.18;98820.03;5041200;28;20060;-85
2020/12/02 09:16:44;;;;;;;21.70;13.33;;;;;;;3.57;88.71;98820.75;5058424;28;20047;-85
2020/12/02 09:19:58;;;;;;;17.57;12.17;;;;;;;3.59;87.56;98821.44;5064160;28;20048;-85
2020/12/02 09:23:07;;;;;;;16.25;9.60;;;;;;;3.87;86.88;98824.31;5052038;28;20522;-84
2020/12/02 09:26:22;;;;;;;16.77;10.83;;;;;;;4.16;86.21;98824.34;5069874;28;20054;-84
2020/12/02 09:29:34;;;;;;;16.53;9.83;;;;;;;3.41;87.23;98823.06;5041648;28;20067;-84
2020/12/02 09:32:44;;;;;;;16.03;11.03;;;;;;;3.22;89.38;98833.50;5057488;28;20402;-86
2020/12/02 09:35:56;;;;;;;18.63;12.52;;;;;;;3.15;89.93;98829.75;5042433;28;20398;-86
2020/12/02 09:39:09;;;;;;;14.20;10.33;;;;;;;3.07;89.91;98825.09;5030960;28;20043;-85
2020/12/02 09:42:21;;;;;;;16.27;10.40;;;;;;;3.61;89.01;98816.06;5052007;28;20051;-85
2020/12/02 09:46:11;;;;;;;13.23;8.93;;;;;;;4.46;86.05;98823.41;5047387;28;20036;-84
2020/12/02 09:49:51;;;;;;;11.47;7.50;;;;;;;4.95;82.82;98823.19;5069567;28;20032;-84
2020/12/02 09:57:50;;;;;;;14.10;9.07;;;;;;;4.92;82.90;98818.19;5041896;28;20049;-83
2020/12/02 10:01:32;;;;;;;13.33;8.97;;;;;;;4.92;82.35;98820.84;5022933;28;20052;-83
2020/12/02 10:09:48;;;;;;;12.43;8.33;;;;;;;4.91;82.05;98823.63;5040104;28;20396;-82
2020/12/02 10:13:31;;;;;;;11.57;8.37;;;;;;;4.80;82.92;98821.97;5029852;28;20644;-82
2020/12/02 10:17:16;;;;;;;12.90;8.47;;;;;;;4.65;83.15;98836.56;5028772;28;20495;-82
2020/12/02 10:20:38;;;;;;;12.07;8.13;;;;;;;4.44;84.38;98820.88;5005641;28;20072;-83
2020/12/02 10:24:13;;;;;;;9.17;6.70;;;;;;;5.03;83.10;98822.47;5027948;28;20044;-82
2020/12/02 10:27:56;;;;;;;9.23;6.70;;;;;;;4.43;81.74;98818.38;5025636;28;20045;-83
2020/12/02 10:31:18;;;;;;;12.20;7.50;;;;;;;4.19;84.94;98821.44;5040093;28;20040;-83
2020/12/02 10:34:39;;;;;;;11.88;7.80;;;;;;;3.87;84.91;98816.41;5038015;28;20044;-83
2020/12/02 10:37:55;;;;;;;10.17;7.17;;;;;;;3.81;86.55;98811.66;5021601;28;20037;-83
2020/12/02 10:41:19;;;;;;;11.10;7.47;;;;;;;3.72;86.44;98801.94;5039283;28;20033;-83
2020/12/02 10:45:02;;;;;;;6.53;5.07;;;;;;;3.31;87.82;98801.09;5005652;28;20057;-83
2020/12/02 10:48:45;;;;;;;6.03;4.88;;;;;;;3.19;88.85;98787.19;5025287;28;20033;-83
2020/12/02 10:52:00;;;;;;;8.00;6.20;;;;;;;3.16;89.08;98798.00;5039189;28;20051;-83
2020/12/02 10:55:18;;;;;;;7.47;5.40;;;;;;;2.99;89.56;98789.88;5024714;28;20492;-83
2020/12/02 10:58:37;;;;;;;6.87;5.47;;;;;;;3.25;89.47;98791.94;5060230;28;20074;-84
2020/12/02 11:01:52;;;;;;;8.37;5.63;;;;;;;3.40;88.90;98810.84;5028075;28;20052;-83
2020/12/02 11:05:05;;;;;;;7.77;6.20;;;;;;;3.59;89.12;98800.38;5046218;28;20028;-83
2020/12/02 11:08:24;;;;;;;7.17;5.60;;;;;;;3.62;88.34;98810.66;5039668;28;20048;-83
2020/12/02 11:12:03;;;;;;;8.17;5.90;;;;;;;3.52;88.13;98804.53;5046590;28;20043;-84
2020/12/02 11:15:29;;;;;;;9.47;6.67;;;;;;;3.39;88.05;98793.38;5030431;28;20052;-84
2020/12/02 11:18:59;;;;;;;10.90;7.77;;;;;;;3.73;91.13;98796.53;5050512;28;20529;-83
2020/12/02 11:22:34;;;;;;;12.60;8.90;;;;;;;3.69;87.98;98783.72;5038816;28;20540;-83
2020/12/02 11:26:02;;;;;;;12.20;8.20;;;;;;;3.25;88.09;98775.28;5048469;28;20051;-82
2020/12/02 11:29:16;;;;;;;10.17;7.17;;;;;;;3.40;89.80;98778.41;5061435;28;20032;-82
2020/12/02 11:32:58;;;;;;;8.93;6.80;;;;;;;3.39;88.78;98767.03;5078617;28;20036;-82
2020/12/02 11:36:27;;;;;;;10.97;8.33;;;;;;;3.48;88.92;98766.22;5056673;28;20161;-82
2020/12/02 11:40:10;;;;;;;10.67;8.30;;;;;;;3.44;88.29;98764.81;5045314;28;20051;-81
2020/12/02 11:43:45;;;;;;;10.10;7.57;;;;;;;3.52;87.91;98767.63;5059261;28;20036;-82
2020/12/02 11:47:11;;;;;;;8.60;7.07;;;;;;;3.62;88.70;98757.94;5070132;28;20044;-81
2020/12/02 11:50:35;;;;;;;8.83;6.77;;;;;;;3.64;87.70;98765.72;5061117;28;20738;-81
2020/12/02 11:53:54;;;;;;;8.77;6.50;;;;;;;3.67;88.48;98759.31;5059995;28;20040;-81
2020/12/02 11:57:09;;;;;;;11.23;8.10;;;;;;;3.77;87.43;98765.47;5041887;28;20041;-80
2020/12/02 12:00:22;;;;;;;12.00;8.07;;;;;;;3.61;87.71;98772.06;5030746;28;20060;-80
2020/12/02 12:03:51;;;;;;;10.00;7.83;;;;;;;3.50;88.01;98780.09;5037406;28;20045;-80
2020/12/02 12:07:17;;;;;;;12.00;8.07;;;;;;;3.42;88.54;98763.28;5020323;28;20395;-80
2020/12/02 12:10:38;;;;;;;10.97;7.90;;;;;;;3.38;88.64;98759.25;5024655;28;20489;-80
2020/12/02 12:14:00;;;;;;;11.87;8.43;;;;;;;3.19;89.75;98752.09;5041999;28;20037;-81
2020/12/02 12:17:29;;;;;;;12.50;8.30;;;;;;;3.56;91.65;98755.81;5025249;28;20048;-80
2020/12/02 12:20:45;;;;;;;11.30;8.07;;;;;;;3.37;89.77;98752.31;5021455;28;20036;-80
2020/12/02 12:24:05;;;;;;;12.00;8.30;;;;;;;3.39;90.63;98751.22;5030589;28;20408;-80
2020/12/02 12:27:18;;;;;;;11.70;8.20;;;;;;;3.26;90.17;98750.63;5031139;28;20041;-82
2020/12/02 12:30:29;;;;;;;11.67;8.37;;;;;;;3.30;90.98;98756.47;5041451;28;20067;-82
2020/12/02 12:33:49;;;;;;;11.63;8.50;;;;;;;3.22;90.30;98754.47;5008890;28;20037;-82
2020/12/02 12:37:07;;;;;;;15.27;10.40;;;;;;;3.06;90.42;98765.53;5019300;28;20049;-81
2020/12/02 12:40:32;;;;;;;14.43;9.03;;;;;;;3.00;91.01;98759.94;5030793;28;20044;-81
2020/12/02 12:43:58;;;;;;;13.10;9.57;;;;;;;3.05;91.71;98755.13;5019767;28;20044;-81
2020/12/02 12:47:19;;;;;;;13.73;9.63;;;;;;;3.04;91.54;98762.19;5020495;28;20516;-82
2020/12/02 12:50:33;;;;;;;15.73;11.10;;;;;;;3.28;91.81;98764.50;5004927;28;20068;-81
2020/12/02 12:53:46;;;;;;;20.70;11.83;;;;;;;3.38;90.25;98770.63;5008709;28;20048;-81
2020/12/02 12:56:58;;;;;;;34.97;11.77;;;;;;;3.26;90.00;98771.69;5029506;28;20067;-80
2020/12/02 13:00:12;;;;;;;16.00;10.15;;;;;;;3.24;90.98;98773.63;5047816;28;20514;-81
2020/12/02 13:03:28;;;;;;;13.53;9.97;;;;;;;3.53;90.42;98779.84;5059579;28;20040;-81
2020/12/02 13:07:07;;;;;;;18.20;12.70;;;;;;;3.75;89.48;98772.66;5080906;28;20043;-82
2020/12/02 13:10:35;;;;;;;20.70;14.07;;;;;;;3.68;89.09;98766.25;5038664;28;20051;-82
2020/12/02 13:13:54;;;;;;;37.60;14.03;;;;;;;3.51;89.49;98765.13;5072735;28;20039;-81
2020/12/02 13:17:20;;;;;;;26.43;12.03;;;;;;;3.50;89.63;98764.28;5070409;28;20043;-82
2020/12/02 13:20:40;;;;;;;38.73;12.83;;;;;;;3.40;89.85;98768.69;5058266;28;20051;-82
2020/12/02 13:24:06;;;;;;;66.67;13.13;;;;;;;3.33;90.08;98756.19;5058451;28;20044;-81
2020/12/02 13:27:49;;;;;;;47.77;12.20;;;;;;;3.30;90.55;98757.31;5092639;28;20032;-82
2020/12/02 13:31:14;;;;;;;64.87;14.37;;;;;;;3.31;91.02;98753.66;5064420;28;20040;-82
2020/12/02 13:34:26;;;;;;;52.63;13.03;;;;;;;3.19;90.67;98760.84;5030570;28;20056;-81
2020/12/02 13:37:38;;;;;;;134.27;17.57;;;;;;;3.23;91.18;98769.31;5058315;28;20032;-81
2020/12/02 13:41:10;;;;;;;90.87;15.53;;;;;;;3.16;90.48;98771.66;5073958;28;20487;-82
2020/12/02 13:44:26;;;;;;;66.47;14.50;;;;;;;3.09;91.32;98769.66;5069358;28;20051;-82
2020/12/02 13:47:45;;;;;;;40.53;14.77;;;;;;;3.17;91.21;98761.97;5058207;28;20044;-82
2020/12/02 13:51:24;;;;;;;32.00;15.03;;;;;;;3.36;92.31;98762.00;5051421;28;20048;-81
2020/12/02 13:54:51;;;;;;;30.60;14.20;;;;;;;3.45;92.46;98755.09;5058203;28;20482;-81
2020/12/02 13:58:15;;;;;;;22.23;13.93;;;;;;;3.40;91.75;98755.53;5080038;28;20043;-82
2020/12/02 14:01:34;;;;;;;20.93;12.80;;;;;;;3.31;92.39;98755.47;5047244;28;20514;-82
2020/12/02 14:05:02;;;;;;;24.47;14.23;;;;;;;3.29;92.37;98757.44;5040436;28;20056;-80
2020/12/02 14:08:14;;;;;;;24.07;14.83;;;;;;;3.10;92.33;98761.63;5049308;28;20051;-81
2020/12/02 14:11:56;;;;;;;26.77;14.73;;;;;;;2.99;92.94;98758.25;5063346;28;20048;-81
2020/12/02 14:15:15;;;;;;;25.87;14.53;;;;;;;3.00;93.33;98752.03;5040753;28;20044;-82
2020/12/02 14:18:26;;;;;;;21.40;12.00;;;;;;;3.96;92.28;98750.47;5057478;28;20464;-82
2020/12/02 14:21:38;;;;;;;26.25;13.15;;;;;;;3.93;87.94;98756.00;5051751;28;20048;-81
2020/12/02 14:24:53;;;;;;;43.17;13.43;;;;;;;3.29;88.71;98758.25;5046449;28;20047;-81
2020/12/02 14:28:06;;;;;;;58.17;14.87;;;;;;;3.04;90.35;98762.19;5040628;28;20052;-81
2020/12/02 14:31:17;;;;;;;52.60;14.97;;;;;;;3.07;91.54;98758.47;5039869;28;20403;-82
2020/12/02 14:34:30;;;;;;;80.75;13.50;;;;;;;2.94;91.36;98747.31;5079350;28;20475;-80
2020/12/02 14:37:43;;;;;;;146.67;16.93;;;;;;;2.93;92.15;98745.66;5040498;28;20060;-80
2020/12/02 14:40:58;;;;;;;103.90;16.20;;;;;;;2.85;92.46;98756.81;5069118;28;20039;-80
2020/12/02 14:44:11;;;;;;;87.83;14.97;;;;;;;2.78;92.68;98761.78;5078779;28;20044;-80
2020/12/02 14:47:25;;;;;;;110.00;15.73;;;;;;;2.73;92.63;98761.31;5057030;28;20032;-80
2020/12/02 14:50:40;;;;;;;83.07;16.73;;;;;;;2.70;93.22;98763.41;5058101;28;20483;-80
2020/12/02 14:53:53;;;;;;;95.60;15.03;;;;;;;2.88;92.73;98762.66;5038896;28;20517;-80
2020/12/02 14:57:17;;;;;;;111.27;17.37;;;;;;;2.84;92.13;98758.59;5037598;28;20403;-80
2020/12/02 15:00:31;;;;;;;88.20;16.00;;;;;;;2.70;93.19;98756.34;5026785;28;20053;-80
2020/12/02 15:03:45;;;;;;;68.23;15.07;;;;;;;2.58;93.87;98754.75;5019160;28;20059;-80
2020/12/02 15:07:07;;;;;;;174.57;17.87;;;;;;;2.52;94.44;98744.72;5026245;28;20037;-80
2020/12/02 15:10:35;;;;;;;95.93;14.10;;;;;;;2.43;94.55;98748.13;5039231;28;20054;-80
2020/12/02 15:13:51;;;;;;;100.53;15.43;;;;;;;2.56;94.58;98745.31;5036806;28;20043;-80
2020/12/02 15:17:17;;;;;;;21.30;12.73;;;;;;;2.66;95.22;98747.03;5057142;28;20036;-80
2020/12/02 15:21:03;;;;;;;23.90;14.40;;;;;;;3.11;97.58;98746.69;5022760;28;20056;-81
2020/12/02 15:24:18;;;;;;;19.30;12.33;;;;;;;3.59;95.07;98747.66;5027090;28;20049;-80
2020/12/02 15:27:37;;;;;;;17.97;11.53;;;;;;;3.11;92.97;98744.03;5063010;28;20048;-81
2020/12/02 15:30:53;;;;;;;15.67;10.50;;;;;;;2.91;93.21;98756.31;5040099;28;20041;-81
2020/12/02 15:34:11;;;;;;;17.93;11.77;;;;;;;2.91;93.34;98743.13;5057507;28;20515;-82
2020/12/02 15:37:46;;;;;;;17.13;11.47;;;;;;;2.80;94.23;98748.50;5044248;28;20060;-82
2020/12/02 15:41:14;;;;;;;16.17;11.83;;;;;;;2.81;94.25;98751.00;5063800;28;20067;-82
2020/12/02 15:44:49;;;;;;;20.63;12.20;;;;;;;2.77;93.95;98741.69;5013426;28;20051;-81
2020/12/02 15:48:09;;;;;;;17.27;10.97;;;;;;;2.68;93.75;98731.09;5030069;28;20047;-82
2020/12/02 15:51:34;;;;;;;15.23;10.57;;;;;;;2.69;93.84;98740.69;5041126;28;20044;-82
2020/12/02 15:55:11;;;;;;;16.20;10.70;;;;;;;2.70;93.97;98740.53;5062476;28;20063;-82
2020/12/02 15:58:55;;;;;;;17.00;10.93;;;;;;;2.67;94.10;98746.06;5040238;28;20048;-82